^^
Station Historical Data
Daily Summary for October 28, 2017 Units:  Both    English   Metric
« Previous Day
Next Day »
Daily Weekly Monthly Yearly Custom
  High: Low: Average:
Temperature: TemperatureF °F /  -17.8 °C 65.5 °F /  18.6 °C 77 °F /  25 °C
Dew Point: DewpointF °F /  -17.8 °C 18.5 °F /  -7.5 °C 27.2 °F /  -2.7 °C
Humidity: Humidity% 9% 17%
Wind Speed: WindSpeedMPHmph /  0km/h - 3mph /  4.8km/h
Wind Gust: WindSpeedGustMPHmph /  0km/h - -
Wind- - SSE
Pressure: PressureIn in /  0 hPa 29.95 in /  1014.1 hPa -
Precipitation: 0.00 in /  0 mm    
Historical Graphs
 
 
Tabular Data for October 28, 2017
Time Temperature Dew Point Pressure Wind Wind Speed Wind Gust Humidity Rainfall Rate (Hourly) solar Conditions
TemperatureF °F /  -17.8 °C DewpointF °F /  -17.8 °C PressureInin /  0hPa Calm     Humidity% HourlyPrecipInin /  0mm SolarRadiationWatts/m^2 W/m2 Conditions
00:01 70.5 °F /  21.4 °C 23.5 °F /  -4.7 °C 30.15in /  1020.9hPa Calm   4.0mph /  6.4km/h 17% 0.00in /  0mm 0.0 W/m2
00:08 70.2 °F /  21.2 °C 23.4 °F /  -4.8 °C 30.15in /  1020.9hPa Calm   2.0mph /  3.2km/h 17% 0.00in /  0mm 0.0 W/m2
00:13 70.0 °F /  21.1 °C 23.2 °F /  -4.9 °C 30.15in /  1020.9hPa Calm   1.0mph /  1.6km/h 17% 0.00in /  0mm 0.0 W/m2
00:18 69.8 °F /  21 °C 23.0 °F /  -5 °C 30.15in /  1020.9hPa Calm   5.0mph /  8km/h 17% 0.00in /  0mm 0.0 W/m2
00:23 69.8 °F /  21 °C 23.0 °F /  -5 °C 30.15in /  1020.9hPa Calm   10.0mph /  16.1km/h 17% 0.00in /  0mm 0.0 W/m2
00:34 69.8 °F /  21 °C 23.0 °F /  -5 °C 30.15in /  1020.9hPa ESE 2.0mph /  3.2km/h 8.0mph /  12.9km/h 17% 0.00in /  0mm 0.0 W/m2
00:40 69.6 °F /  20.9 °C 22.8 °F /  -5.1 °C 30.15in /  1020.9hPa Calm   8.0mph /  12.9km/h 17% 0.00in /  0mm 0.0 W/m2
00:45 69.6 °F /  20.9 °C 21.4 °F /  -5.9 °C 30.15in /  1020.9hPa NE 0.9mph /  1.4km/h 9.0mph /  14.5km/h 16% 0.00in /  0mm 0.0 W/m2
00:50 69.4 °F /  20.8 °C 22.6 °F /  -5.2 °C 30.15in /  1020.9hPa Calm   7.0mph /  11.3km/h 17% 0.00in /  0mm 0.0 W/m2
00:55 69.4 °F /  20.8 °C 21.2 °F /  -6 °C 30.14in /  1020.5hPa Calm   5.0mph /  8km/h 16% 0.00in /  0mm 0.0 W/m2
01:00 69.3 °F /  20.7 °C 21.2 °F /  -6 °C 30.14in /  1020.5hPa ESE 2.0mph /  3.2km/h 12.0mph /  19.3km/h 16% 0.00in /  0mm 0.0 W/m2
01:05 69.3 °F /  20.7 °C 21.2 °F /  -6 °C 30.14in /  1020.5hPa ESE 12.1mph /  19.5km/h 12.1mph /  19.5km/h 16% 0.00in /  0mm 0.0 W/m2
01:10 69.1 °F /  20.6 °C 21.0 °F /  -6.1 °C 30.14in /  1020.5hPa ESE 2.0mph /  3.2km/h 7.0mph /  11.3km/h 16% 0.00in /  0mm 0.0 W/m2
01:15 69.1 °F /  20.6 °C 21.0 °F /  -6.1 °C 30.14in /  1020.5hPa East 6.0mph /  9.7km/h 8.0mph /  12.9km/h 16% 0.00in /  0mm 0.0 W/m2
01:20 68.7 °F /  20.4 °C 20.7 °F /  -6.3 °C 30.14in /  1020.5hPa South 6.0mph /  9.7km/h 10.0mph /  16.1km/h 16% 0.00in /  0mm 0.0 W/m2
01:26 68.7 °F /  20.4 °C 20.7 °F /  -6.3 °C 30.14in /  1020.5hPa SE 6.9mph /  11.1km/h 8.0mph /  12.9km/h 16% 0.00in /  0mm 0.0 W/m2
01:31 68.7 °F /  20.4 °C 20.7 °F /  -6.3 °C 30.13in /  1020.2hPa ESE 4.9mph /  7.9km/h 7.0mph /  11.3km/h 16% 0.00in /  0mm 0.0 W/m2
01:36 68.5 °F /  20.3 °C 19.0 °F /  -7.2 °C 30.14in /  1020.5hPa Calm   8.0mph /  12.9km/h 15% 0.00in /  0mm 0.0 W/m2
01:41 68.7 °F /  20.4 °C 19.2 °F /  -7.1 °C 30.14in /  1020.5hPa SE 6.9mph /  11.1km/h 8.0mph /  12.9km/h 15% 0.00in /  0mm 0.0 W/m2
01:46 68.7 °F /  20.4 °C 19.2 °F /  -7.1 °C 30.14in /  1020.5hPa East 2.9mph /  4.7km/h 13.0mph /  20.9km/h 15% 0.00in /  0mm 0.0 W/m2
01:51 68.5 °F /  20.3 °C 19.0 °F /  -7.2 °C 30.13in /  1020.2hPa SE 2.0mph /  3.2km/h 7.0mph /  11.3km/h 15% 0.00in /  0mm 0.0 W/m2
01:56 68.5 °F /  20.3 °C 19.0 °F /  -7.2 °C 30.13in /  1020.2hPa SE 6.0mph /  9.7km/h 10.0mph /  16.1km/h 15% 0.00in /  0mm 0.0 W/m2
02:01 68.4 °F /  20.2 °C 18.9 °F /  -7.3 °C 30.13in /  1020.2hPa SE 4.9mph /  7.9km/h 9.0mph /  14.5km/h 15% 0.00in /  0mm 0.0 W/m2
02:07 68.2 °F /  20.1 °C 18.7 °F /  -7.4 °C 30.13in /  1020.2hPa ESE 0.9mph /  1.4km/h 7.0mph /  11.3km/h 15% 0.00in /  0mm 0.0 W/m2
02:12 68.2 °F /  20.1 °C 18.7 °F /  -7.4 °C 30.13in /  1020.2hPa SE 2.0mph /  3.2km/h 7.0mph /  11.3km/h 15% 0.00in /  0mm 0.0 W/m2
02:17 68.2 °F /  20.1 °C 20.3 °F /  -6.5 °C 30.13in /  1020.2hPa ESE 0.9mph /  1.4km/h 9.0mph /  14.5km/h 16% 0.00in /  0mm 0.0 W/m2
02:22 68.2 °F /  20.1 °C 20.3 °F /  -6.5 °C 30.13in /  1020.2hPa SE 8.1mph /  13km/h 11.0mph /  17.7km/h 16% 0.00in /  0mm 0.0 W/m2
02:27 68.0 °F /  20 °C 18.7 °F /  -7.4 °C 30.12in /  1019.9hPa East 6.9mph /  11.1km/h 11.0mph /  17.7km/h 15% 0.00in /  0mm 0.0 W/m2
02:32 68.0 °F /  20 °C 18.7 °F /  -7.4 °C 30.12in /  1019.9hPa ENE 6.9mph /  11.1km/h 12.0mph /  19.3km/h 15% 0.00in /  0mm 0.0 W/m2
02:37 67.8 °F /  19.9 °C 19.9 °F /  -6.7 °C 30.12in /  1019.9hPa East 2.9mph /  4.7km/h 15.0mph /  24.1km/h 16% 0.00in /  0mm 0.0 W/m2
02:42 67.6 °F /  19.8 °C 19.8 °F /  -6.8 °C 30.12in /  1019.9hPa East 6.0mph /  9.7km/h 9.0mph /  14.5km/h 16% 0.00in /  0mm 0.0 W/m2
02:48 67.5 °F /  19.7 °C 19.8 °F /  -6.8 °C 30.12in /  1019.9hPa SE 2.9mph /  4.7km/h 12.0mph /  19.3km/h 16% 0.00in /  0mm 0.0 W/m2
02:52 67.6 °F /  19.8 °C 19.8 °F /  -6.8 °C 30.12in /  1019.9hPa Calm   13.0mph /  20.9km/h 16% 0.00in /  0mm 0.0 W/m2
02:58 67.5 °F /  19.7 °C 19.8 °F /  -6.8 °C 30.12in /  1019.9hPa SE 2.0mph /  3.2km/h 7.0mph /  11.3km/h 16% 0.00in /  0mm 0.0 W/m2
03:03 67.5 °F /  19.7 °C 19.8 °F /  -6.8 °C 30.11in /  1019.5hPa Calm   5.0mph /  8km/h 16% 0.00in /  0mm 0.0 W/m2
03:08 67.3 °F /  19.6 °C 19.6 °F /  -6.9 °C 30.12in /  1019.9hPa East 4.0mph /  6.4km/h 10.0mph /  16.1km/h 16% 0.00in /  0mm 0.0 W/m2
03:13 67.3 °F /  19.6 °C 19.6 °F /  -6.9 °C 30.12in /  1019.9hPa SE 6.0mph /  9.7km/h 8.0mph /  12.9km/h 16% 0.00in /  0mm 0.0 W/m2
03:18 66.9 °F /  19.4 °C 19.2 °F /  -7.1 °C 30.12in /  1019.9hPa Calm   10.0mph /  16.1km/h 16% 0.00in /  0mm 0.0 W/m2
03:23 66.9 °F /  19.4 °C 19.2 °F /  -7.1 °C 30.12in /  1019.9hPa Calm   4.0mph /  6.4km/h 16% 0.00in /  0mm 0.0 W/m2
03:28 66.7 °F /  19.3 °C 19.0 °F /  -7.2 °C 30.12in /  1019.9hPa East 2.9mph /  4.7km/h 11.0mph /  17.7km/h 16% 0.00in /  0mm 0.0 W/m2
03:33 66.6 °F /  19.2 °C 19.0 °F /  -7.2 °C 30.12in /  1019.9hPa ENE 4.0mph /  6.4km/h 11.0mph /  17.7km/h 16% 0.00in /  0mm 0.0 W/m2
03:38 66.6 °F /  19.2 °C 19.0 °F /  -7.2 °C 30.12in /  1019.9hPa ENE 2.0mph /  3.2km/h 6.0mph /  9.7km/h 16% 0.00in /  0mm 0.0 W/m2
03:43 66.6 °F /  19.2 °C 19.0 °F /  -7.2 °C 30.12in /  1019.9hPa ESE 2.9mph /  4.7km/h 14.0mph /  22.5km/h 16% 0.00in /  0mm 0.0 W/m2
03:48 66.6 °F /  19.2 °C 19.0 °F /  -7.2 °C 30.12in /  1019.9hPa Calm   9.0mph /  14.5km/h 16% 0.00in /  0mm 0.0 W/m2
03:54 66.4 °F /  19.1 °C 18.9 °F /  -7.3 °C 30.12in /  1019.9hPa ESE 2.0mph /  3.2km/h 7.0mph /  11.3km/h 16% 0.00in /  0mm 0.0 W/m2
03:59 66.4 °F /  19.1 °C 18.9 °F /  -7.3 °C 30.12in /  1019.9hPa ESE 4.0mph /  6.4km/h 10.0mph /  16.1km/h 16% 0.00in /  0mm 0.0 W/m2
04:04 66.4 °F /  19.1 °C 18.9 °F /  -7.3 °C 30.12in /  1019.9hPa East 4.0mph /  6.4km/h 6.0mph /  9.7km/h 16% 0.00in /  0mm 0.0 W/m2
04:09 66.2 °F /  19 °C 18.7 °F /  -7.4 °C 30.12in /  1019.9hPa ESE 8.9mph /  14.3km/h 9.0mph /  14.5km/h 16% 0.00in /  0mm 0.0 W/m2
04:14 66.0 °F /  18.9 °C 18.5 °F /  -7.5 °C 30.12in /  1019.9hPa SE 4.0mph /  6.4km/h 12.0mph /  19.3km/h 16% 0.00in /  0mm 0.0 W/m2
04:19 66.0 °F /  18.9 °C 18.5 °F /  -7.5 °C 30.12in /  1019.9hPa ESE 2.0mph /  3.2km/h 7.0mph /  11.3km/h 16% 0.00in /  0mm 0.0 W/m2
04:24 66.0 °F /  18.9 °C 19.9 °F /  -6.7 °C 30.12in /  1019.9hPa ESE 6.0mph /  9.7km/h 9.0mph /  14.5km/h 17% 0.00in /  0mm 0.0 W/m2
04:29 65.8 °F /  18.8 °C 19.8 °F /  -6.8 °C 30.12in /  1019.9hPa SE 4.9mph /  7.9km/h 12.0mph /  19.3km/h 17% 0.00in /  0mm 0.0 W/m2
04:34 65.8 °F /  18.8 °C 19.8 °F /  -6.8 °C 30.12in /  1019.9hPa SE 4.9mph /  7.9km/h 9.0mph /  14.5km/h 17% 0.00in /  0mm 0.0 W/m2
04:39 65.7 °F /  18.7 °C 19.6 °F /  -6.9 °C 30.12in /  1019.9hPa SSE 4.9mph /  7.9km/h 11.0mph /  17.7km/h 17% 0.00in /  0mm 0.0 W/m2
04:45 65.7 °F /  18.7 °C 19.6 °F /  -6.9 °C 30.12in /  1019.9hPa SE 4.0mph /  6.4km/h 15.0mph /  24.1km/h 17% 0.00in /  0mm 0.0 W/m2
04:50 65.7 °F /  18.7 °C 19.6 °F /  -6.9 °C 30.12in /  1019.9hPa ESE 8.1mph /  13km/h 13.0mph /  20.9km/h 17% 0.00in /  0mm 0.0 W/m2
04:55 65.8 °F /  18.8 °C 19.8 °F /  -6.8 °C 30.12in /  1019.9hPa East 6.0mph /  9.7km/h 14.0mph /  22.5km/h 17% 0.00in /  0mm 0.0 W/m2
05:00 65.8 °F /  18.8 °C 19.8 °F /  -6.8 °C 30.12in /  1019.9hPa East 4.9mph /  7.9km/h 13.0mph /  20.9km/h 17% 0.00in /  0mm 0.0 W/m2
05:05 65.8 °F /  18.8 °C 19.8 °F /  -6.8 °C 30.13in /  1020.2hPa ESE 10.1mph /  16.3km/h 11.0mph /  17.7km/h 17% 0.00in /  0mm 0.0 W/m2
05:10 65.7 °F /  18.7 °C 19.6 °F /  -6.9 °C 30.12in /  1019.9hPa SSE 6.9mph /  11.1km/h 14.0mph /  22.5km/h 17% 0.00in /  0mm 0.0 W/m2
05:17 65.7 °F /  18.7 °C 19.6 °F /  -6.9 °C 30.12in /  1019.9hPa ESE 4.0mph /  6.4km/h 8.0mph /  12.9km/h 17% 0.00in /  0mm 0.0 W/m2
05:23 65.7 °F /  18.7 °C 19.6 °F /  -6.9 °C 30.13in /  1020.2hPa ENE 2.0mph /  3.2km/h 10.0mph /  16.1km/h 17% 0.00in /  0mm 0.0 W/m2
05:26 65.7 °F /  18.7 °C 19.6 °F /  -6.9 °C 30.13in /  1020.2hPa ESE 0.9mph /  1.4km/h 13.0mph /  20.9km/h 17% 0.00in /  0mm 0.0 W/m2
05:31 65.5 °F /  18.6 °C 19.6 °F /  -6.9 °C 30.12in /  1019.9hPa ESE 2.9mph /  4.7km/h 7.0mph /  11.3km/h 17% 0.00in /  0mm 0.0 W/m2
05:36 65.5 °F /  18.6 °C 19.6 °F /  -6.9 °C 30.12in /  1019.9hPa SE 4.9mph /  7.9km/h 14.0mph /  22.5km/h 17% 0.00in /  0mm 0.0 W/m2
05:42 65.5 °F /  18.6 °C 19.6 °F /  -6.9 °C 30.12in /  1019.9hPa East 11.0mph /  17.7km/h 11.0mph /  17.7km/h 17% 0.00in /  0mm 0.0 W/m2
05:47 65.5 °F /  18.6 °C 19.6 °F /  -6.9 °C 30.13in /  1020.2hPa SE 6.9mph /  11.1km/h 13.0mph /  20.9km/h 17% 0.00in /  0mm 0.0 W/m2
05:50 65.5 °F /  18.6 °C 19.6 °F /  -6.9 °C 30.13in /  1020.2hPa ESE 8.1mph /  13km/h 8.1mph /  13km/h 17% 0.00in /  0mm 0.0 W/m2
05:55 65.5 °F /  18.6 °C 19.6 °F /  -6.9 °C 30.13in /  1020.2hPa SE 2.9mph /  4.7km/h 9.0mph /  14.5km/h 17% 0.00in /  0mm 0.0 W/m2
06:00 65.7 °F /  18.7 °C 19.6 °F /  -6.9 °C 30.13in /  1020.2hPa SSE 4.0mph /  6.4km/h 17.0mph /  27.4km/h 17% 0.00in /  0mm 0.0 W/m2
06:05 65.7 °F /  18.7 °C 19.6 °F /  -6.9 °C 30.13in /  1020.2hPa Calm   8.0mph /  12.9km/h 17% 0.00in /  0mm 0.0 W/m2
06:10 65.7 °F /  18.7 °C 19.6 °F /  -6.9 °C 30.13in /  1020.2hPa ESE 0.9mph /  1.4km/h 10.0mph /  16.1km/h 17% 0.00in /  0mm 0.0 W/m2
06:16 65.7 °F /  18.7 °C 19.6 °F /  -6.9 °C 30.13in /  1020.2hPa SE 10.1mph /  16.3km/h 15.0mph /  24.1km/h 17% 0.00in /  0mm 5.0 W/m2
06:21 65.8 °F /  18.8 °C 19.8 °F /  -6.8 °C 30.13in /  1020.2hPa East 2.0mph /  3.2km/h 4.0mph /  6.4km/h 17% 0.00in /  0mm 9.0 W/m2
06:26 65.8 °F /  18.8 °C 19.8 °F /  -6.8 °C 30.13in /  1020.2hPa SE 6.9mph /  11.1km/h 10.0mph /  16.1km/h 17% 0.00in /  0mm 11.0 W/m2
06:31 65.8 °F /  18.8 °C 19.8 °F /  -6.8 °C 30.13in /  1020.2hPa ESE 4.0mph /  6.4km/h 13.0mph /  20.9km/h 17% 0.00in /  0mm 12.0 W/m2
06:36 65.8 °F /  18.8 °C 19.8 °F /  -6.8 °C 30.13in /  1020.2hPa SE 8.9mph /  14.3km/h 9.0mph /  14.5km/h 17% 0.00in /  0mm 16.0 W/m2
06:41 66.0 °F /  18.9 °C 19.9 °F /  -6.7 °C 30.13in /  1020.2hPa Calm   10.0mph /  16.1km/h 17% 0.00in /  0mm 18.0 W/m2
06:46 66.4 °F /  19.1 °C 20.3 °F /  -6.5 °C 30.13in /  1020.2hPa SE 11.0mph /  17.7km/h 17.0mph /  27.4km/h 17% 0.00in /  0mm 19.0 W/m2
06:51 66.6 °F /  19.2 °C 20.3 °F /  -6.5 °C 30.13in /  1020.2hPa SE 2.0mph /  3.2km/h 6.0mph /  9.7km/h 17% 0.00in /  0mm 21.0 W/m2
06:56 66.7 °F /  19.3 °C 20.5 °F /  -6.4 °C 30.13in /  1020.2hPa Calm   7.0mph /  11.3km/h 17% 0.00in /  0mm 21.0 W/m2
07:01 66.7 °F /  19.3 °C 20.5 °F /  -6.4 °C 30.14in /  1020.5hPa ESE 6.0mph /  9.7km/h 11.0mph /  17.7km/h 17% 0.00in /  0mm 23.0 W/m2
07:07 67.3 °F /  19.6 °C 21.0 °F /  -6.1 °C 30.13in /  1020.2hPa ESE 6.0mph /  9.7km/h 11.0mph /  17.7km/h 17% 0.00in /  0mm 26.0 W/m2
07:12 67.5 °F /  19.7 °C 21.2 °F /  -6 °C 30.13in /  1020.2hPa Calm   6.0mph /  9.7km/h 17% 0.00in /  0mm 26.0 W/m2
07:17 67.6 °F /  19.8 °C 21.2 °F /  -6 °C 30.13in /  1020.2hPa SE 0.9mph /  1.4km/h 7.0mph /  11.3km/h 17% 0.00in /  0mm 28.0 W/m2
07:22 67.8 °F /  19.9 °C 21.4 °F /  -5.9 °C 30.13in /  1020.2hPa ESE 8.1mph /  13km/h 8.1mph /  13km/h 17% 0.00in /  0mm 28.0 W/m2
07:27 68.2 °F /  20.1 °C 21.7 °F /  -5.7 °C 30.13in /  1020.2hPa SE 2.9mph /  4.7km/h 8.0mph /  12.9km/h 17% 0.00in /  0mm 30.0 W/m2
07:32 68.5 °F /  20.3 °C 21.9 °F /  -5.6 °C 30.12in /  1019.9hPa SE 2.0mph /  3.2km/h 7.0mph /  11.3km/h 17% 0.00in /  0mm 32.0 W/m2
07:37 68.9 °F /  20.5 °C 22.3 °F /  -5.4 °C 30.12in /  1019.9hPa ESE 6.9mph /  11.1km/h 12.0mph /  19.3km/h 17% 0.00in /  0mm 33.0 W/m2
07:42 69.3 °F /  20.7 °C 21.2 °F /  -6 °C 30.12in /  1019.9hPa ESE 2.9mph /  4.7km/h 11.0mph /  17.7km/h 16% 0.00in /  0mm 35.0 W/m2
07:47 69.4 °F /  20.8 °C 22.6 °F /  -5.2 °C 30.12in /  1019.9hPa East 6.9mph /  11.1km/h 9.0mph /  14.5km/h 17% 0.00in /  0mm 35.0 W/m2
07:53 69.8 °F /  21 °C 23.0 °F /  -5 °C 30.12in /  1019.9hPa Calm   14.0mph /  22.5km/h 17% 0.00in /  0mm 37.0 W/m2
07:58 70.2 °F /  21.2 °C 23.4 °F /  -4.8 °C 30.12in /  1019.9hPa SE 2.0mph /  3.2km/h 7.0mph /  11.3km/h 17% 0.00in /  0mm 40.0 W/m2
08:03 70.3 °F /  21.3 °C 23.5 °F /  -4.7 °C 30.12in /  1019.9hPa SE 2.9mph /  4.7km/h 17.0mph /  27.4km/h 17% 0.00in /  0mm 44.0 W/m2
08:08 70.5 °F /  21.4 °C 23.5 °F /  -4.7 °C 30.12in /  1019.9hPa SE 6.0mph /  9.7km/h 11.0mph /  17.7km/h 17% 0.00in /  0mm 51.0 W/m2
08:13 70.9 °F /  21.6 °C 23.9 °F /  -4.5 °C 30.12in /  1019.9hPa Calm   8.0mph /  12.9km/h 17% 0.00in /  0mm 418.0 W/m2
08:18 71.2 °F /  21.8 °C 24.3 °F /  -4.3 °C 30.12in /  1019.9hPa East 2.0mph /  3.2km/h 8.0mph /  12.9km/h 17% 0.00in /  0mm 459.0 W/m2
08:23 71.8 °F /  22.1 °C 24.6 °F /  -4.1 °C 30.13in /  1020.2hPa ENE 6.9mph /  11.1km/h 10.0mph /  16.1km/h 17% 0.00in /  0mm 476.0 W/m2
08:28 72.1 °F /  22.3 °C 25.0 °F /  -3.9 °C 30.13in /  1020.2hPa NE 4.9mph /  7.9km/h 8.0mph /  12.9km/h 17% 0.00in /  0mm 496.0 W/m2
08:33 72.9 °F /  22.7 °C 24.1 °F /  -4.4 °C 30.13in /  1020.2hPa East 4.9mph /  7.9km/h 15.0mph /  24.1km/h 16% 0.00in /  0mm 513.0 W/m2
08:39 73.4 °F /  23 °C 24.4 °F /  -4.2 °C 30.13in /  1020.2hPa East 4.9mph /  7.9km/h 15.0mph /  24.1km/h 16% 0.00in /  0mm 533.0 W/m2
08:44 73.8 °F /  23.2 °C 24.8 °F /  -4 °C 30.13in /  1020.2hPa East 6.0mph /  9.7km/h 11.0mph /  17.7km/h 16% 0.00in /  0mm 550.0 W/m2
08:49 74.1 °F /  23.4 °C 25.0 °F /  -3.9 °C 30.12in /  1019.9hPa ESE 4.9mph /  7.9km/h 12.0mph /  19.3km/h 16% 0.00in /  0mm 571.0 W/m2
08:54 74.8 °F /  23.8 °C 25.7 °F /  -3.5 °C 30.12in /  1019.9hPa NNE 4.9mph /  7.9km/h 10.0mph /  16.1km/h 16% 0.00in /  0mm 591.0 W/m2
08:59 75.2 °F /  24 °C 25.9 °F /  -3.4 °C 30.12in /  1019.9hPa WSW 2.9mph /  4.7km/h 12.0mph /  19.3km/h 16% 0.00in /  0mm 606.0 W/m2
09:04 75.4 °F /  24.1 °C 26.1 °F /  -3.3 °C 30.12in /  1019.9hPa ESE 8.1mph /  13km/h 15.0mph /  24.1km/h 16% 0.00in /  0mm 624.0 W/m2
09:09 75.4 °F /  24.1 °C 26.1 °F /  -3.3 °C 30.12in /  1019.9hPa SE 0.9mph /  1.4km/h 13.0mph /  20.9km/h 16% 0.00in /  0mm 643.0 W/m2
09:14 75.7 °F /  24.3 °C 27.9 °F /  -2.3 °C 30.12in /  1019.9hPa NE 6.0mph /  9.7km/h 12.0mph /  19.3km/h 17% 0.00in /  0mm 661.0 W/m2
09:19 76.3 °F /  24.6 °C 26.8 °F /  -2.9 °C 30.12in /  1019.9hPa East 4.0mph /  6.4km/h 15.0mph /  24.1km/h 16% 0.00in /  0mm 675.0 W/m2
09:25 76.5 °F /  24.7 °C 28.4 °F /  -2 °C 30.12in /  1019.9hPa NNE 8.1mph /  13km/h 14.0mph /  22.5km/h 17% 0.00in /  0mm 694.0 W/m2
09:30 76.8 °F /  24.9 °C 30.0 °F /  -1.1 °C 30.12in /  1019.9hPa North 2.0mph /  3.2km/h 16.0mph /  25.7km/h 18% 0.00in /  0mm 708.0 W/m2
09:35 77.5 °F /  25.3 °C 30.7 °F /  -0.7 °C 30.12in /  1019.9hPa East 0.9mph /  1.4km/h 14.0mph /  22.5km/h 18% 0.00in /  0mm 722.0 W/m2
09:41 77.9 °F /  25.5 °C 30.9 °F /  -0.6 °C 30.11in /  1019.5hPa ENE 6.0mph /  9.7km/h 11.0mph /  17.7km/h 18% 0.00in /  0mm 744.0 W/m2
09:46 78.3 °F /  25.7 °C 29.8 °F /  -1.2 °C 30.11in /  1019.5hPa East 14.1mph /  22.7km/h 14.1mph /  22.7km/h 17% 0.00in /  0mm 758.0 W/m2
09:51 78.4 °F /  25.8 °C 31.5 °F /  -0.3 °C 30.11in /  1019.5hPa ENE 8.1mph /  13km/h 13.0mph /  20.9km/h 18% 0.00in /  0mm 779.0 W/m2
09:56 78.6 °F /  25.9 °C 31.6 °F /  -0.2 °C 30.11in /  1019.5hPa ESE 4.9mph /  7.9km/h 10.0mph /  16.1km/h 18% 0.00in /  0mm 791.0 W/m2
10:01 79.0 °F /  26.1 °C 31.8 °F /  -0.1 °C 30.11in /  1019.5hPa East 11.0mph /  17.7km/h 12.0mph /  19.3km/h 18% 0.00in /  0mm 802.0 W/m2
10:06 79.3 °F /  26.3 °C 32.2 °F /  0.1 °C 30.11in /  1019.5hPa NE 6.0mph /  9.7km/h 10.0mph /  16.1km/h 18% 0.00in /  0mm 814.0 W/m2
10:11 79.9 °F /  26.6 °C 34.0 °F /  1.1 °C 30.11in /  1019.5hPa East 4.9mph /  7.9km/h 16.0mph /  25.7km/h 19% 0.00in /  0mm 828.0 W/m2
10:17 80.1 °F /  26.7 °C 32.7 °F /  0.4 °C 30.11in /  1019.5hPa East 8.1mph /  13km/h 14.0mph /  22.5km/h 18% 0.00in /  0mm 842.0 W/m2
10:22 80.2 °F /  26.8 °C 32.9 °F /  0.5 °C 30.11in /  1019.5hPa ESE 2.0mph /  3.2km/h 11.0mph /  17.7km/h 18% 0.00in /  0mm 856.0 W/m2
10:27 80.8 °F /  27.1 °C 34.7 °F /  1.5 °C 30.11in /  1019.5hPa East 4.0mph /  6.4km/h 11.0mph /  17.7km/h 19% 0.00in /  0mm 867.0 W/m2
10:32 81.3 °F /  27.4 °C 33.8 °F /  1 °C 30.10in /  1019.2hPa NE 2.0mph /  3.2km/h 10.0mph /  16.1km/h 18% 0.00in /  0mm 882.0 W/m2
10:37 81.7 °F /  27.6 °C 35.4 °F /  1.9 °C 30.10in /  1019.2hPa NE 4.0mph /  6.4km/h 13.0mph /  20.9km/h 19% 0.00in /  0mm 893.0 W/m2
10:42 81.9 °F /  27.7 °C 35.6 °F /  2 °C 30.10in /  1019.2hPa NE 2.9mph /  4.7km/h 10.0mph /  16.1km/h 19% 0.00in /  0mm 905.0 W/m2
10:47 82.8 °F /  28.2 °C 34.9 °F /  1.6 °C 30.09in /  1018.8hPa SE 4.0mph /  6.4km/h 13.0mph /  20.9km/h 18% 0.00in /  0mm 912.0 W/m2
10:52 83.1 °F /  28.4 °C 35.2 °F /  1.8 °C 30.09in /  1018.8hPa Calm   13.0mph /  20.9km/h 18% 0.00in /  0mm 926.0 W/m2
10:58 83.7 °F /  28.7 °C 34.2 °F /  1.2 °C 30.09in /  1018.8hPa SE 2.9mph /  4.7km/h 12.0mph /  19.3km/h 17% 0.00in /  0mm 933.0 W/m2
11:03 83.8 °F /  28.8 °C 34.3 °F /  1.3 °C 30.09in /  1018.8hPa SE 4.0mph /  6.4km/h 15.0mph /  24.1km/h 17% 0.00in /  0mm 942.0 W/m2
11:08 84.0 °F /  28.9 °C 34.5 °F /  1.4 °C 30.09in /  1018.8hPa NE 6.0mph /  9.7km/h 16.0mph /  25.7km/h 17% 0.00in /  0mm 953.0 W/m2
11:13 84.4 °F /  29.1 °C 33.3 °F /  0.7 °C 30.09in /  1018.8hPa ESE 4.0mph /  6.4km/h 13.0mph /  20.9km/h 16% 0.00in /  0mm 960.0 W/m2
11:18 84.7 °F /  29.3 °C 33.6 °F /  0.9 °C 30.08in /  1018.5hPa NNE 11.0mph /  17.7km/h 16.0mph /  25.7km/h 16% 0.00in /  0mm 965.0 W/m2
11:23 85.3 °F /  29.6 °C 34.0 °F /  1.1 °C 30.08in /  1018.5hPa ENE 0.9mph /  1.4km/h 10.0mph /  16.1km/h 16% 0.00in /  0mm 974.0 W/m2
11:28 85.5 °F /  29.7 °C 30.9 °F /  -0.6 °C 30.08in /  1018.5hPa NNE 6.9mph /  11.1km/h 16.0mph /  25.7km/h 14% 0.00in /  0mm 977.0 W/m2
11:33 85.3 °F /  29.6 °C 32.4 °F /  0.2 °C 30.07in /  1018.2hPa NE 4.9mph /  7.9km/h 9.0mph /  14.5km/h 15% 0.00in /  0mm 983.0 W/m2
11:38 85.6 °F /  29.8 °C 32.7 °F /  0.4 °C 30.07in /  1018.2hPa North 11.0mph /  17.7km/h 16.0mph /  25.7km/h 15% 0.00in /  0mm 990.0 W/m2
11:43 86.4 °F /  30.2 °C 33.3 °F /  0.7 °C 30.07in /  1018.2hPa ENE 6.0mph /  9.7km/h 6.0mph /  9.7km/h 15% 0.00in /  0mm 993.0 W/m2
11:48 87.1 °F /  30.6 °C 32.2 °F /  0.1 °C 30.07in /  1018.2hPa SE 0.9mph /  1.4km/h 6.0mph /  9.7km/h 14% 0.00in /  0mm 997.0 W/m2
11:54 87.3 °F /  30.7 °C 32.2 °F /  0.1 °C 30.06in /  1017.8hPa NW 0.9mph /  1.4km/h 9.0mph /  14.5km/h 14% 0.00in /  0mm 1002.0 W/m2
11:59 87.3 °F /  30.7 °C 30.4 °F /  -0.9 °C 30.06in /  1017.8hPa WNW 10.1mph /  16.3km/h 10.1mph /  16.3km/h 13% 0.00in /  0mm 1004.0 W/m2
12:05 86.7 °F /  30.4 °C 28.0 °F /  -2.2 °C 30.06in /  1017.8hPa West 4.9mph /  7.9km/h 7.0mph /  11.3km/h 12% 0.00in /  0mm 1011.0 W/m2
12:10 86.2 °F /  30.1 °C 29.7 °F /  -1.3 °C 30.06in /  1017.8hPa East 4.9mph /  7.9km/h 9.0mph /  14.5km/h 13% 0.00in /  0mm 1013.0 W/m2
12:15 86.5 °F /  30.3 °C 29.8 °F /  -1.2 °C 30.06in /  1017.8hPa NW 2.9mph /  4.7km/h 14.0mph /  22.5km/h 13% 0.00in /  0mm 1013.0 W/m2
12:20 87.3 °F /  30.7 °C 30.4 °F /  -0.9 °C 30.06in /  1017.8hPa SE 2.0mph /  3.2km/h 14.0mph /  22.5km/h 13% 0.00in /  0mm 1020.0 W/m2
12:25 87.4 °F /  30.8 °C 28.6 °F /  -1.9 °C 30.06in /  1017.8hPa Calm   9.0mph /  14.5km/h 12% 0.00in /  0mm 1014.0 W/m2
12:30 87.1 °F /  30.6 °C 30.2 °F /  -1 °C 30.06in /  1017.8hPa WSW 2.0mph /  3.2km/h 5.0mph /  8km/h 13% 0.00in /  0mm 1023.0 W/m2
12:35 87.3 °F /  30.7 °C 30.4 °F /  -0.9 °C 30.05in /  1017.5hPa Calm   6.0mph /  9.7km/h 13% 0.00in /  0mm 1021.0 W/m2
12:40 88.0 °F /  31.1 °C 28.9 °F /  -1.7 °C 30.05in /  1017.5hPa ESE 2.0mph /  3.2km/h 4.0mph /  6.4km/h 12% 0.00in /  0mm 1021.0 W/m2
12:46 88.7 °F /  31.5 °C 29.7 °F /  -1.3 °C 30.05in /  1017.5hPa NW 2.0mph /  3.2km/h 5.0mph /  8km/h 12% 0.00in /  0mm 1021.0 W/m2
12:51 89.2 °F /  31.8 °C 30.0 °F /  -1.1 °C 30.04in /  1017.2hPa West 6.9mph /  11.1km/h 9.0mph /  14.5km/h 12% 0.00in /  0mm 1023.0 W/m2
12:56 89.4 °F /  31.9 °C 28.0 °F /  -2.2 °C 30.05in /  1017.5hPa NNW 8.1mph /  13km/h 11.0mph /  17.7km/h 11% 0.00in /  0mm 1056.0 W/m2
13:01 89.8 °F /  32.1 °C 28.2 °F /  -2.1 °C 30.04in /  1017.2hPa NW 2.9mph /  4.7km/h 6.0mph /  9.7km/h 11% 0.00in /  0mm 1041.0 W/m2
13:06 90.0 °F /  32.2 °C 28.4 °F /  -2 °C 30.04in /  1017.2hPa Calm   11.0mph /  17.7km/h 11% 0.00in /  0mm 1032.0 W/m2
13:11 90.1 °F /  32.3 °C 28.6 °F /  -1.9 °C 30.04in /  1017.2hPa NNE 6.0mph /  9.7km/h 6.0mph /  9.7km/h 11% 0.00in /  0mm 1056.0 W/m2
13:16 90.3 °F /  32.4 °C 28.8 °F /  -1.8 °C 30.03in /  1016.8hPa WSW 0.9mph /  1.4km/h 7.0mph /  11.3km/h 11% 0.00in /  0mm 1081.0 W/m2
13:21 90.1 °F /  32.3 °C 28.6 °F /  -1.9 °C 30.03in /  1016.8hPa NW 4.9mph /  7.9km/h 12.0mph /  19.3km/h 11% 0.00in /  0mm 279.0 W/m2
13:26 90.0 °F /  32.2 °C 28.4 °F /  -2 °C 30.03in /  1016.8hPa West 2.9mph /  4.7km/h 10.0mph /  16.1km/h 11% 0.00in /  0mm 1065.0 W/m2
13:32 90.3 °F /  32.4 °C 28.8 °F /  -1.8 °C 30.03in /  1016.8hPa Calm   7.0mph /  11.3km/h 11% 0.00in /  0mm 1118.0 W/m2
13:37 90.7 °F /  32.6 °C 28.9 °F /  -1.7 °C 30.03in /  1016.8hPa Calm   12.0mph /  19.3km/h 11% 0.00in /  0mm 234.0 W/m2
13:42 90.1 °F /  32.3 °C 28.6 °F /  -1.9 °C 30.02in /  1016.5hPa NE 0.9mph /  1.4km/h 3.0mph /  4.8km/h 11% 0.00in /  0mm 311.0 W/m2
13:47 89.8 °F /  32.1 °C 28.2 °F /  -2.1 °C 30.02in /  1016.5hPa North 0.9mph /  1.4km/h 5.0mph /  8km/h 11% 0.00in /  0mm 267.0 W/m2
13:52 89.2 °F /  31.8 °C 27.9 °F /  -2.3 °C 30.01in /  1016.1hPa North 2.0mph /  3.2km/h 5.0mph /  8km/h 11% 0.00in /  0mm 272.0 W/m2
13:57 88.7 °F /  31.5 °C 29.7 °F /  -1.3 °C 30.01in /  1016.1hPa WSW 2.9mph /  4.7km/h 5.0mph /  8km/h 12% 0.00in /  0mm 285.0 W/m2
14:02 88.5 °F /  31.4 °C 29.5 °F /  -1.4 °C 30.01in /  1016.1hPa NE 2.9mph /  4.7km/h 8.0mph /  12.9km/h 12% 0.00in /  0mm 359.0 W/m2
14:07 89.1 °F /  31.7 °C 27.7 °F /  -2.4 °C 30.01in /  1016.1hPa North 2.0mph /  3.2km/h 3.0mph /  4.8km/h 11% 0.00in /  0mm 274.0 W/m2
14:12 88.9 °F /  31.6 °C 27.5 °F /  -2.5 °C 30.00in /  1015.8hPa NW 0.9mph /  1.4km/h 5.0mph /  8km/h 11% 0.00in /  0mm 267.0 W/m2
14:18 89.2 °F /  31.8 °C 27.9 °F /  -2.3 °C 30.00in /  1015.8hPa WNW 2.0mph /  3.2km/h 6.0mph /  9.7km/h 11% 0.00in /  0mm 1104.0 W/m2
14:23 90.1 °F /  32.3 °C 26.2 °F /  -3.2 °C 30.00in /  1015.8hPa North 4.0mph /  6.4km/h 6.0mph /  9.7km/h 10% 0.00in /  0mm 1058.0 W/m2
14:28 90.3 °F /  32.4 °C 26.4 °F /  -3.1 °C 30.00in /  1015.8hPa NE 2.0mph /  3.2km/h 6.0mph /  9.7km/h 10% 0.00in /  0mm 251.0 W/m2
14:33 90.7 °F /  32.6 °C 26.6 °F /  -3 °C 29.99in /  1015.5hPa WSW 4.9mph /  7.9km/h 5.0mph /  8km/h 10% 0.00in /  0mm 1042.0 W/m2
14:38 91.2 °F /  32.9 °C 27.1 °F /  -2.7 °C 29.99in /  1015.5hPa NW 8.1mph /  13km/h 11.0mph /  17.7km/h 10% 0.00in /  0mm 1005.0 W/m2
14:43 91.8 °F /  33.2 °C 27.5 °F /  -2.5 °C 29.99in /  1015.5hPa Calm   4.0mph /  6.4km/h 10% 0.00in /  0mm 984.0 W/m2
14:48 92.5 °F /  33.6 °C 28.0 °F /  -2.2 °C 29.98in /  1015.1hPa West 6.0mph /  9.7km/h 9.0mph /  14.5km/h 10% 0.00in /  0mm 1000.0 W/m2
14:53 92.7 °F /  33.7 °C 25.5 °F /  -3.6 °C 29.98in /  1015.1hPa NNW 6.0mph /  9.7km/h 8.0mph /  12.9km/h 9% 0.00in /  0mm 1002.0 W/m2
14:58 92.5 °F /  33.6 °C 25.5 °F /  -3.6 °C 29.98in /  1015.1hPa NE 6.9mph /  11.1km/h 10.0mph /  16.1km/h 9% 0.00in /  0mm 965.0 W/m2
15:03 92.3 °F /  33.5 °C 27.9 °F /  -2.3 °C 29.98in /  1015.1hPa WNW 0.9mph /  1.4km/h 8.0mph /  12.9km/h 10% 0.00in /  0mm 909.0 W/m2
15:09 92.7 °F /  33.7 °C 25.5 °F /  -3.6 °C 29.98in /  1015.1hPa WNW 2.9mph /  4.7km/h 5.0mph /  8km/h 9% 0.00in /  0mm 893.0 W/m2
15:14 92.8 °F /  33.8 °C 28.2 °F /  -2.1 °C 29.98in /  1015.1hPa West 2.9mph /  4.7km/h 8.0mph /  12.9km/h 10% 0.00in /  0mm 872.0 W/m2
15:19 92.7 °F /  33.7 °C 25.5 °F /  -3.6 °C 29.98in /  1015.1hPa NNW 2.9mph /  4.7km/h 8.0mph /  12.9km/h 9% 0.00in /  0mm 870.0 W/m2
15:24 92.8 °F /  33.8 °C 25.7 °F /  -3.5 °C 29.97in /  1014.8hPa Calm   3.0mph /  4.8km/h 9% 0.00in /  0mm 877.0 W/m2
15:29 93.0 °F /  33.9 °C 25.9 °F /  -3.4 °C 29.97in /  1014.8hPa NW 4.0mph /  6.4km/h 7.0mph /  11.3km/h 9% 0.00in /  0mm 714.0 W/m2
15:34 93.0 °F /  33.9 °C 25.9 °F /  -3.4 °C 29.97in /  1014.8hPa Calm   7.0mph /  11.3km/h 9% 0.00in /  0mm 795.0 W/m2
15:40 92.5 °F /  33.6 °C 28.0 °F /  -2.2 °C 29.97in /  1014.8hPa NW 2.9mph /  4.7km/h 7.0mph /  11.3km/h 10% 0.00in /  0mm 193.0 W/m2
15:45 91.0 °F /  32.8 °C 27.0 °F /  -2.8 °C 29.97in /  1014.8hPa NNE 4.0mph /  6.4km/h 9.0mph /  14.5km/h 10% 0.00in /  0mm 158.0 W/m2
15:50 89.6 °F /  32 °C 28.2 °F /  -2.1 °C 29.97in /  1014.8hPa NNW 2.9mph /  4.7km/h 10.0mph /  16.1km/h 11% 0.00in /  0mm 137.0 W/m2
15:56 88.7 °F /  31.5 °C 27.5 °F /  -2.5 °C 29.97in /  1014.8hPa Calm   7.0mph /  11.3km/h 11% 0.00in /  0mm 125.0 W/m2
16:01 88.3 °F /  31.3 °C 27.1 °F /  -2.7 °C 29.97in /  1014.8hPa Calm   4.0mph /  6.4km/h 11% 0.00in /  0mm 121.0 W/m2
16:06 88.0 °F /  31.1 °C 28.9 °F /  -1.7 °C 29.97in /  1014.8hPa Calm   4.0mph /  6.4km/h 12% 0.00in /  0mm 146.0 W/m2
16:11 87.8 °F /  31 °C 28.9 °F /  -1.7 °C 29.96in /  1014.4hPa Calm   2.0mph /  3.2km/h 12% 0.00in /  0mm 167.0 W/m2
16:16 87.6 °F /  30.9 °C 28.8 °F /  -1.8 °C 29.96in /  1014.4hPa Calm   1.0mph /  1.6km/h 12% 0.00in /  0mm 186.0 W/m2
16:21 87.6 °F /  30.9 °C 28.8 °F /  -1.8 °C 29.96in /  1014.4hPa NE 2.0mph /  3.2km/h 4.0mph /  6.4km/h 12% 0.00in /  0mm 134.0 W/m2
16:26 87.6 °F /  30.9 °C 26.6 °F /  -3 °C 29.96in /  1014.4hPa Calm   5.0mph /  8km/h 11% 0.00in /  0mm 109.0 W/m2
16:31 87.3 °F /  30.7 °C 26.4 °F /  -3.1 °C 29.96in /  1014.4hPa NNW 8.9mph /  14.3km/h 9.0mph /  14.5km/h 11% 0.00in /  0mm 127.0 W/m2
16:36 87.3 °F /  30.7 °C 26.4 °F /  -3.1 °C 29.96in /  1014.4hPa NW 4.0mph /  6.4km/h 7.0mph /  11.3km/h 11% 0.00in /  0mm 536.0 W/m2
16:41 88.0 °F /  31.1 °C 27.0 °F /  -2.8 °C 29.95in /  1014.1hPa Calm   2.0mph /  3.2km/h 11% 0.00in /  0mm 480.0 W/m2
16:47 89.1 °F /  31.7 °C 27.7 °F /  -2.4 °C 29.95in /  1014.1hPa WSW 2.0mph /  3.2km/h 4.0mph /  6.4km/h 11% 0.00in /  0mm 504.0 W/m2
16:52 89.4 °F /  31.9 °C 28.0 °F /  -2.2 °C 29.95in /  1014.1hPa NNW 2.0mph /  3.2km/h 7.0mph /  11.3km/h 11% 0.00in /  0mm 473.0 W/m2
16:57 90.3 °F /  32.4 °C 26.4 °F /  -3.1 °C 29.95in /  1014.1hPa North 4.0mph /  6.4km/h 7.0mph /  11.3km/h 10% 0.00in /  0mm 461.0 W/m2
17:02 90.9 °F /  32.7 °C 24.3 °F /  -4.3 °C 29.95in /  1014.1hPa NW 2.0mph /  3.2km/h 8.0mph /  12.9km/h 9% 0.00in /  0mm 417.0 W/m2
17:07 90.9 °F /  32.7 °C 24.3 °F /  -4.3 °C 29.95in /  1014.1hPa NNW 6.9mph /  11.1km/h 10.0mph /  16.1km/h 9% 0.00in /  0mm 264.0 W/m2
17:12 90.5 °F /  32.5 °C 26.6 °F /  -3 °C 29.95in /  1014.1hPa NNW 2.9mph /  4.7km/h 5.0mph /  8km/h 10% 0.00in /  0mm 359.0 W/m2
17:17 90.7 °F /  32.6 °C 24.1 °F /  -4.4 °C 29.95in /  1014.1hPa North 0.9mph /  1.4km/h 7.0mph /  11.3km/h 9% 0.00in /  0mm 346.0 W/m2
17:23 90.7 °F /  32.6 °C 24.1 °F /  -4.4 °C 29.95in /  1014.1hPa West 2.9mph /  4.7km/h 8.0mph /  12.9km/h 9% 0.00in /  0mm 302.0 W/m2
17:28 90.1 °F /  32.3 °C 26.2 °F /  -3.2 °C 29.95in /  1014.1hPa NNW 4.0mph /  6.4km/h 7.0mph /  11.3km/h 10% 0.00in /  0mm 63.0 W/m2
17:33 89.2 °F /  31.8 °C 25.5 °F /  -3.6 °C 29.95in /  1014.1hPa Calm   5.0mph /  8km/h 10% 0.00in /  0mm 123.0 W/m2
17:39 88.5 °F /  31.4 °C 25.0 °F /  -3.9 °C 29.95in /  1014.1hPa Calm   5.0mph /  8km/h 10% 0.00in /  0mm 60.0 W/m2
17:44 88.0 °F /  31.1 °C 24.6 °F /  -4.1 °C 29.95in /  1014.1hPa Calm   3.0mph /  4.8km/h 10% 0.00in /  0mm 67.0 W/m2
17:49 87.6 °F /  30.9 °C 24.3 °F /  -4.3 °C 29.95in /  1014.1hPa Calm   4.0mph /  6.4km/h 10% 0.00in /  0mm 70.0 W/m2
17:54 87.4 °F /  30.8 °C 24.3 °F /  -4.3 °C 29.95in /  1014.1hPa NNW 2.9mph /  4.7km/h 6.0mph /  9.7km/h 10% 0.00in /  0mm 128.0 W/m2
17:59 87.3 °F /  30.7 °C 26.4 °F /  -3.1 °C 29.95in /  1014.1hPa WNW 0.9mph /  1.4km/h 4.0mph /  6.4km/h 11% 0.00in /  0mm 70.0 W/m2
18:04 87.1 °F /  30.6 °C 23.9 °F /  -4.5 °C 29.95in /  1014.1hPa NW 4.9mph /  7.9km/h 5.0mph /  8km/h 10% 0.00in /  0mm 53.0 W/m2
18:09 86.7 °F /  30.4 °C 25.9 °F /  -3.4 °C 29.95in /  1014.1hPa Calm   4.0mph /  6.4km/h 11% 0.00in /  0mm 44.0 W/m2
18:15 86.4 °F /  30.2 °C 25.7 °F /  -3.5 °C 29.95in /  1014.1hPa Calm   5.0mph /  8km/h 11% 0.00in /  0mm 42.0 W/m2
18:20 85.8 °F /  29.9 °C 25.2 °F /  -3.8 °C 29.95in /  1014.1hPa NW 0.9mph /  1.4km/h 9.0mph /  14.5km/h 11% 0.00in /  0mm 97.0 W/m2
18:25 85.8 °F /  29.9 °C 25.2 °F /  -3.8 °C 29.95in /  1014.1hPa NNW 2.0mph /  3.2km/h 4.0mph /  6.4km/h 11% 0.00in /  0mm 77.0 W/m2
18:30 85.8 °F /  29.9 °C 25.2 °F /  -3.8 °C 29.95in /  1014.1hPa NNW 2.9mph /  4.7km/h 5.0mph /  8km/h 11% 0.00in /  0mm 56.0 W/m2
18:35 85.8 °F /  29.9 °C 25.2 °F /  -3.8 °C 29.95in /  1014.1hPa NW 4.9mph /  7.9km/h 6.0mph /  9.7km/h 11% 0.00in /  0mm 42.0 W/m2
18:41 85.8 °F /  29.9 °C 25.2 °F /  -3.8 °C 29.96in /  1014.4hPa Calm   5.0mph /  8km/h 11% 0.00in /  0mm 30.0 W/m2
18:46 85.8 °F /  29.9 °C 25.2 °F /  -3.8 °C 29.96in /  1014.4hPa West 2.0mph /  3.2km/h 2.0mph /  3.2km/h 11% 0.00in /  0mm 23.0 W/m2
18:51 85.5 °F /  29.7 °C 25.0 °F /  -3.9 °C 29.96in /  1014.4hPa WNW 2.9mph /  4.7km/h 3.0mph /  4.8km/h 11% 0.00in /  0mm 21.0 W/m2
18:56 85.3 °F /  29.6 °C 24.8 °F /  -4 °C 29.96in /  1014.4hPa Calm   1.0mph /  1.6km/h 11% 0.00in /  0mm 16.0 W/m2
19:02 84.7 °F /  29.3 °C 28.4 °F /  -2 °C 29.97in /  1014.8hPa WSW 4.0mph /  6.4km/h 14.0mph /  22.5km/h 13% 0.00in /  0mm 9.0 W/m2
19:07 83.7 °F /  28.7 °C 29.5 °F /  -1.4 °C 29.97in /  1014.8hPa West 0.9mph /  1.4km/h 8.0mph /  12.9km/h 14% 0.00in /  0mm 0.0 W/m2
19:13 82.6 °F /  28.1 °C 28.6 °F /  -1.9 °C 29.97in /  1014.8hPa WSW 4.9mph /  7.9km/h 8.0mph /  12.9km/h 14% 0.00in /  0mm 0.0 W/m2
19:18 81.7 °F /  27.6 °C 29.5 °F /  -1.4 °C 29.97in /  1014.8hPa WSW 4.0mph /  6.4km/h 11.0mph /  17.7km/h 15% 0.00in /  0mm 0.0 W/m2
19:23 80.8 °F /  27.1 °C 30.4 °F /  -0.9 °C 29.98in /  1015.1hPa WSW 4.0mph /  6.4km/h 11.0mph /  17.7km/h 16% 0.00in /  0mm 0.0 W/m2
19:28 80.2 °F /  26.8 °C 30.0 °F /  -1.1 °C 29.98in /  1015.1hPa WSW 4.9mph /  7.9km/h 9.0mph /  14.5km/h 16% 0.00in /  0mm 0.0 W/m2
19:33 79.9 °F /  26.6 °C 29.7 °F /  -1.3 °C 29.98in /  1015.1hPa West 0.9mph /  1.4km/h 11.0mph /  17.7km/h 16% 0.00in /  0mm 0.0 W/m2
19:38 79.5 °F /  26.4 °C 30.9 °F /  -0.6 °C 29.99in /  1015.5hPa Calm   8.0mph /  12.9km/h 17% 0.00in /  0mm 0.0 W/m2
19:43 79.2 °F /  26.2 °C 32.0 °F /  0 °C 29.99in /  1015.5hPa West 2.9mph /  4.7km/h 5.0mph /  8km/h 18% 0.00in /  0mm 0.0 W/m2
19:48 79.0 °F /  26.1 °C 31.8 °F /  -0.1 °C 30.00in /  1015.8hPa South 2.9mph /  4.7km/h 3.0mph /  4.8km/h 18% 0.00in /  0mm 0.0 W/m2
19:54 78.4 °F /  25.8 °C 31.5 °F /  -0.3 °C 30.01in /  1016.1hPa SSE 4.0mph /  6.4km/h 4.0mph /  6.4km/h 18% 0.00in /  0mm 0.0 W/m2
19:59 78.3 °F /  25.7 °C 31.3 °F /  -0.4 °C 30.02in /  1016.5hPa SSW 2.0mph /  3.2km/h 5.0mph /  8km/h 18% 0.00in /  0mm 0.0 W/m2
20:05 78.3 °F /  25.7 °C 31.3 °F /  -0.4 °C 30.02in /  1016.5hPa South 0.9mph /  1.4km/h 2.0mph /  3.2km/h 18% 0.00in /  0mm 0.0 W/m2
20:10 78.3 °F /  25.7 °C 31.3 °F /  -0.4 °C 30.02in /  1016.5hPa SSE 4.0mph /  6.4km/h 12.0mph /  19.3km/h 18% 0.00in /  0mm 0.0 W/m2
20:15 78.1 °F /  25.6 °C 31.1 °F /  -0.5 °C 30.03in /  1016.8hPa Calm   9.0mph /  14.5km/h 18% 0.00in /  0mm 0.0 W/m2
20:20 78.1 °F /  25.6 °C 31.1 °F /  -0.5 °C 30.03in /  1016.8hPa Calm   8.0mph /  12.9km/h 18% 0.00in /  0mm 0.0 W/m2
20:25 78.3 °F /  25.7 °C 31.3 °F /  -0.4 °C 30.02in /  1016.5hPa SW 0.9mph /  1.4km/h 4.0mph /  6.4km/h 18% 0.00in /  0mm 0.0 W/m2
20:30 78.3 °F /  25.7 °C 31.3 °F /  -0.4 °C 30.02in /  1016.5hPa Calm   2.0mph /  3.2km/h 18% 0.00in /  0mm 0.0 W/m2
20:35 78.1 °F /  25.6 °C 29.7 °F /  -1.3 °C 30.03in /  1016.8hPa Calm   6.0mph /  9.7km/h 17% 0.00in /  0mm 0.0 W/m2
20:40 78.1 °F /  25.6 °C 31.1 °F /  -0.5 °C 30.03in /  1016.8hPa Calm   2.0mph /  3.2km/h 18% 0.00in /  0mm 0.0 W/m2
20:46 77.9 °F /  25.5 °C 30.9 °F /  -0.6 °C 30.04in /  1017.2hPa Calm     18% 0.00in /  0mm 0.0 W/m2
20:51 77.5 °F /  25.3 °C 30.7 °F /  -0.7 °C 30.04in /  1017.2hPa Calm     18% 0.00in /  0mm 0.0 W/m2
20:56 77.4 °F /  25.2 °C 30.6 °F /  -0.8 °C 30.04in /  1017.2hPa Calm     18% 0.00in /  0mm 0.0 W/m2
21:01 77.0 °F /  25 °C 30.2 °F /  -1 °C 30.04in /  1017.2hPa Calm     18% 0.00in /  0mm 0.0 W/m2
21:06 76.6 °F /  24.8 °C 30.0 °F /  -1.1 °C 30.05in /  1017.5hPa Calm     18% 0.00in /  0mm 0.0 W/m2
21:11 76.3 °F /  24.6 °C 30.9 °F /  -0.6 °C 30.05in /  1017.5hPa Calm     19% 0.00in /  0mm 0.0 W/m2
21:16 75.9 °F /  24.4 °C 30.7 °F /  -0.7 °C 30.06in /  1017.8hPa Calm     19% 0.00in /  0mm 0.0 W/m2
21:21 75.6 °F /  24.2 °C 34.0 °F /  1.1 °C 30.06in /  1017.8hPa Calm   1.0mph /  1.6km/h 22% 0.00in /  0mm 0.0 W/m2
21:26 75.0 °F /  23.9 °C 40.6 °F /  4.8 °C 30.06in /  1017.8hPa East 2.0mph /  3.2km/h 6.0mph /  9.7km/h 29% 0.00in /  0mm 0.0 W/m2
21:32 74.7 °F /  23.7 °C 42.1 °F /  5.6 °C 30.06in /  1017.8hPa Calm   5.0mph /  8km/h 31% 0.00in /  0mm 0.0 W/m2
21:37 74.1 °F /  23.4 °C 42.4 °F /  5.8 °C 30.06in /  1017.8hPa Calm   5.0mph /  8km/h 32% 0.00in /  0mm 0.0 W/m2
21:42 73.8 °F /  23.2 °C 42.1 °F /  5.6 °C 30.06in /  1017.8hPa ENE 2.9mph /  4.7km/h 4.0mph /  6.4km/h 32% 0.00in /  0mm 0.0 W/m2
21:47 73.6 °F /  23.1 °C 42.6 °F /  5.9 °C 30.06in /  1017.8hPa Calm   2.0mph /  3.2km/h 33% 0.00in /  0mm 0.0 W/m2
21:52 73.2 °F /  22.9 °C 43.2 °F /  6.2 °C 30.06in /  1017.8hPa East 0.9mph /  1.4km/h 3.0mph /  4.8km/h 34% 0.00in /  0mm 0.0 W/m2
21:57 72.9 °F /  22.7 °C 42.8 °F /  6 °C 30.06in /  1017.8hPa Calm     34% 0.00in /  0mm 0.0 W/m2
22:02 72.7 °F /  22.6 °C 42.6 °F /  5.9 °C 30.06in /  1017.8hPa Calm   4.0mph /  6.4km/h 34% 0.00in /  0mm 0.0 W/m2
22:07 72.3 °F /  22.4 °C 43.2 °F /  6.2 °C 30.06in /  1017.8hPa Calm   5.0mph /  8km/h 35% 0.00in /  0mm 0.0 W/m2
22:13 72.1 °F /  22.3 °C 43.0 °F /  6.1 °C 30.06in /  1017.8hPa ENE 2.0mph /  3.2km/h 5.0mph /  8km/h 35% 0.00in /  0mm 0.0 W/m2
22:18 72.0 °F /  22.2 °C 42.8 °F /  6 °C 30.06in /  1017.8hPa NNE 2.9mph /  4.7km/h 3.0mph /  4.8km/h 35% 0.00in /  0mm 0.0 W/m2
22:23 71.8 °F /  22.1 °C 42.6 °F /  5.9 °C 30.06in /  1017.8hPa NE 0.9mph /  1.4km/h 5.0mph /  8km/h 35% 0.00in /  0mm 0.0 W/m2
22:28 71.8 °F /  22.1 °C 43.3 °F /  6.3 °C 30.06in /  1017.8hPa Calm   3.0mph /  4.8km/h 36% 0.00in /  0mm 0.0 W/m2
22:34 71.4 °F /  21.9 °C 43.2 °F /  6.2 °C 30.06in /  1017.8hPa Calm   2.0mph /  3.2km/h 36% 0.00in /  0mm 0.0 W/m2
22:39 71.4 °F /  21.9 °C 43.2 °F /  6.2 °C 30.06in /  1017.8hPa Calm   1.0mph /  1.6km/h 36% 0.00in /  0mm 0.0 W/m2
22:44 71.2 °F /  21.8 °C 43.0 °F /  6.1 °C 30.06in /  1017.8hPa Calm   4.0mph /  6.4km/h 36% 0.00in /  0mm 0.0 W/m2
22:49 71.1 °F /  21.7 °C 42.8 °F /  6 °C 30.06in /  1017.8hPa Calm   2.0mph /  3.2km/h 36% 0.00in /  0mm 0.0 W/m2
22:54 70.9 °F /  21.6 °C 43.3 °F /  6.3 °C 30.06in /  1017.8hPa Calm     37% 0.00in /  0mm 0.0 W/m2
22:59 70.7 °F /  21.5 °C 43.2 °F /  6.2 °C 30.06in /  1017.8hPa Calm     37% 0.00in /  0mm 0.0 W/m2
23:04 70.5 °F /  21.4 °C 43.0 °F /  6.1 °C 30.06in /  1017.8hPa ENE 0.9mph /  1.4km/h 1.0mph /  1.6km/h 37% 0.00in /  0mm 0.0 W/m2
23:10 70.3 °F /  21.3 °C 43.5 °F /  6.4 °C 30.06in /  1017.8hPa ENE 4.0mph /  6.4km/h 4.0mph /  6.4km/h 38% 0.00in /  0mm 0.0 W/m2
23:15 70.2 °F /  21.2 °C 43.3 °F /  6.3 °C 30.07in /  1018.2hPa NNE 4.9mph /  7.9km/h 5.0mph /  8km/h 38% 0.00in /  0mm 0.0 W/m2
23:20 70.2 °F /  21.2 °C 43.3 °F /  6.3 °C 30.07in /  1018.2hPa Calm   4.0mph /  6.4km/h 38% 0.00in /  0mm 0.0 W/m2
23:25 70.2 °F /  21.2 °C 43.3 °F /  6.3 °C 30.07in /  1018.2hPa Calm   2.0mph /  3.2km/h 38% 0.00in /  0mm 0.0 W/m2
23:30 70.0 °F /  21.1 °C 43.2 °F /  6.2 °C 30.06in /  1017.8hPa NE 0.9mph /  1.4km/h 3.0mph /  4.8km/h 38% 0.00in /  0mm 0.0 W/m2
23:35 70.0 °F /  21.1 °C 43.2 °F /  6.2 °C 30.06in /  1017.8hPa Calm     38% 0.00in /  0mm 0.0 W/m2
23:40 70.0 °F /  21.1 °C 43.2 °F /  6.2 °C 30.06in /  1017.8hPa Calm     38% 0.00in /  0mm 0.0 W/m2
23:45 69.6 °F /  20.9 °C 42.8 °F /  6 °C 30.06in /  1017.8hPa North 0.9mph /  1.4km/h 3.0mph /  4.8km/h 38% 0.00in /  0mm 0.0 W/m2
23:51 69.4 °F /  20.8 °C 39.0 °F /  3.9 °C 30.06in /  1017.8hPa NNE 2.9mph /  4.7km/h 6.0mph /  9.7km/h 33% 0.00in /  0mm 0.0 W/m2
23:56 69.3 °F /  20.7 °C 36.5 °F /  2.5 °C 30.06in /  1017.8hPa NW 2.9mph /  4.7km/h 5.0mph /  8km/h 30% 0.00in /  0mm 0.0 W/m2
Olympia, Windhoek, Namibia
Compliments of Weather Underground - 3.25 mb